Time;durP1;ratioP1;P1;durP2;ratioP2;P2;SDS_P1;SDS_P2;PMS_P1;PMS_P2;Temp;Humidity;BMP_temperature;BMP_pressure;BME280_temperature;BME280_humidity;BME280_pressure;Samples;Min_cycle;Max_cycle;Signal;HPM_P1;HPM_P2
2023/09/08 00:00:55;;;;;;;1.83;0.75;;;12.10;99.90;;;;;;5037016;28;20193;-85
2023/09/08 00:03:23;;;;;;;2.40;0.60;;;12.00;99.90;;;;;;5035966;28;20186;-85
2023/09/08 00:05:51;;;;;;;1.40;0.52;;;12.10;99.90;;;;;;5028325;28;20239;-85
2023/09/08 00:08:18;;;;;;;4.10;0.77;;;12.20;99.90;;;;;;5053081;28;20202;-85
2023/09/08 00:10:46;;;;;;;5.15;0.70;;;12.20;99.90;;;;;;5036094;28;20765;-86
2023/09/08 00:13:14;;;;;;;1.73;0.73;;;12.20;99.90;;;;;;5037079;28;20213;-85
2023/09/08 00:15:42;;;;;;;3.45;0.90;;;12.10;99.90;;;;;;5030283;28;20641;-84
2023/09/08 00:18:09;;;;;;;2.45;0.80;;;11.90;99.90;;;;;;5030983;28;20198;-85
2023/09/08 00:20:37;;;;;;;1.38;0.70;;;11.90;99.90;;;;;;5018488;28;20185;-85
2023/09/08 00:23:05;;;;;;;1.10;0.60;;;11.80;99.90;;;;;;5035521;28;20273;-85
2023/09/08 00:25:34;;;;;;;1.95;0.70;;;11.90;99.90;;;;;;5018697;28;20648;-84
2023/09/08 00:28:03;;;;;;;2.53;0.90;;;12.00;99.90;;;;;;5035708;28;20774;-85
2023/09/08 00:30:30;;;;;;;4.47;0.63;;;12.00;99.90;;;;;;5032121;28;20613;-85
2023/09/08 00:32:58;;;;;;;0.90;0.52;;;11.90;99.90;;;;;;5041074;28;20196;-84
2023/09/08 00:35:27;;;;;;;1.02;0.63;;;11.80;99.90;;;;;;5037413;28;20651;-85
2023/09/08 00:37:54;;;;;;;0.52;0.43;;;11.60;99.90;;;;;;5038212;28;20205;-85
2023/09/08 00:40:22;;;;;;;3.88;0.65;;;11.70;99.90;;;;;;5033709;28;20672;-85
2023/09/08 00:42:50;;;;;;;2.25;0.60;;;11.90;99.90;;;;;;5034710;28;20194;-85
2023/09/08 00:45:18;;;;;;;2.90;0.68;;;12.00;99.90;;;;;;5035487;28;20245;-84
2023/09/08 00:47:45;;;;;;;1.85;0.68;;;11.90;99.90;;;;;;5019367;28;20686;-85
2023/09/08 00:50:13;;;;;;;2.50;0.70;;;11.80;99.90;;;;;;5017119;28;20209;-85
2023/09/08 00:52:41;;;;;;;4.00;0.70;;;11.60;99.90;;;;;;5034782;28;20711;-85
2023/09/08 00:55:09;;;;;;;3.30;0.70;;;11.60;99.90;;;;;;5033695;28;20272;-85
2023/09/08 00:57:37;;;;;;;1.08;0.50;;;11.70;99.90;;;;;;5017386;28;20268;-85
2023/09/08 01:00:08;;;;;;;2.22;0.70;;;11.90;99.90;;;;;;5031605;28;20217;-84
2023/09/08 01:02:35;;;;;;;1.58;0.70;;;11.80;99.90;;;;;;5037052;28;20193;-85
2023/09/08 01:05:04;;;;;;;3.80;0.63;;;11.80;99.90;;;;;;5025997;28;20672;-85
2023/09/08 01:07:32;;;;;;;0.57;0.57;;;11.80;99.90;;;;;;5031674;28;20216;-85
2023/09/08 01:10:06;;;;;;;4.13;0.60;;;11.70;99.90;;;;;;5038279;28;20981;-85
2023/09/08 01:12:34;;;;;;;5.35;0.60;;;11.80;99.90;;;;;;5024870;28;20205;-85
2023/09/08 01:15:04;;;;;;;4.35;0.75;;;11.80;99.90;;;;;;5041655;28;20623;-85
2023/09/08 01:17:33;;;;;;;1.40;0.60;;;11.80;99.90;;;;;;5036773;28;20201;-85
2023/09/08 01:20:16;;;;;;;4.35;0.65;;;11.70;99.90;;;;;;5038968;28;20212;-84
2023/09/08 01:23:13;;;;;;;4.93;0.77;;;11.70;99.90;;;;;;5035364;28;20193;-85
2023/09/08 01:25:51;;;;;;;1.30;0.60;;;11.80;99.90;;;;;;5018996;28;20297;-84
2023/09/08 01:28:21;;;;;;;1.35;0.57;;;11.70;99.90;;;;;;5031622;28;20206;-86
2023/09/08 01:30:50;;;;;;;1.70;0.52;;;11.80;99.90;;;;;;5037629;28;20212;-84
2023/09/08 01:33:19;;;;;;;1.08;0.60;;;11.80;99.90;;;;;;5021100;28;20211;-84
2023/09/08 01:35:47;;;;;;;2.30;0.80;;;11.80;99.90;;;;;;5041603;28;20186;-85
2023/09/08 01:38:15;;;;;;;0.93;0.70;;;11.70;99.90;;;;;;5017905;28;20234;-85
2023/09/08 01:40:42;;;;;;;2.20;0.60;;;11.60;99.90;;;;;;5038512;28;20201;-85
2023/09/08 01:43:10;;;;;;;3.92;0.70;;;11.60;99.90;;;;;;5038282;28;20287;-84
2023/09/08 01:45:38;;;;;;;1.05;0.60;;;11.60;99.90;;;;;;5038824;28;20389;-84
2023/09/08 01:48:06;;;;;;;2.10;0.60;;;11.60;99.90;;;;;;5036258;28;20280;-85
2023/09/08 01:50:34;;;;;;;3.15;0.60;;;11.60;99.90;;;;;;5034930;28;20710;-85
2023/09/08 01:53:02;;;;;;;1.00;0.50;;;11.60;99.90;;;;;;5041931;28;20220;-85
2023/09/08 01:55:30;;;;;;;2.33;0.65;;;11.70;99.90;;;;;;5034202;28;20178;-84
2023/09/08 01:57:57;;;;;;;1.65;0.80;;;11.80;99.90;;;;;;5039086;28;20197;-85
2023/09/08 02:00:25;;;;;;;1.25;0.60;;;11.80;99.90;;;;;;5021853;28;20204;-84
2023/09/08 02:02:53;;;;;;;1.35;0.70;;;11.80;99.90;;;;;;5040546;28;20643;-85
2023/09/08 02:05:21;;;;;;;2.15;0.60;;;11.70;99.90;;;;;;5029340;28;20186;-84
2023/09/08 02:07:49;;;;;;;1.05;0.50;;;11.60;99.90;;;;;;5032414;28;20612;-84
2023/09/08 02:10:17;;;;;;;3.28;0.77;;;11.60;99.90;;;;;;5037096;28;20675;-84
2023/09/08 02:12:46;;;;;;;1.42;0.60;;;11.60;99.90;;;;;;5018000;28;20199;-85
2023/09/08 02:15:15;;;;;;;3.85;0.70;;;11.50;99.90;;;;;;5033381;28;20289;-85
2023/09/08 02:17:43;;;;;;;0.88;0.60;;;11.50;99.90;;;;;;5034373;28;20202;-85
2023/09/08 02:20:11;;;;;;;2.08;0.77;;;11.50;99.90;;;;;;5024037;28;20273;-84
2023/09/08 02:22:39;;;;;;;4.63;0.50;;;11.30;99.90;;;;;;5029872;28;20262;-84
2023/09/08 02:25:07;;;;;;;1.55;0.60;;;11.20;99.90;;;;;;5038234;28;20890;-84
2023/09/08 02:27:36;;;;;;;2.28;0.50;;;11.40;99.90;;;;;;5036427;28;20186;-85
2023/09/08 02:30:04;;;;;;;5.07;0.70;;;11.50;99.90;;;;;;5030867;28;20227;-85
2023/09/08 02:32:32;;;;;;;1.88;0.80;;;11.60;99.90;;;;;;5036530;28;20201;-84
2023/09/08 02:35:00;;;;;;;2.08;0.70;;;11.50;99.90;;;;;;5030099;28;20566;-84
2023/09/08 02:37:28;;;;;;;1.88;0.50;;;11.60;99.90;;;;;;5032355;28;20193;-85
2023/09/08 02:39:55;;;;;;;4.50;0.90;;;11.70;99.90;;;;;;5036721;27;20197;-85
2023/09/08 02:42:23;;;;;;;1.05;0.60;;;11.70;99.90;;;;;;5021400;28;20212;-85
2023/09/08 02:44:51;;;;;;;1.85;0.63;;;11.70;99.90;;;;;;5036107;28;20197;-85
2023/09/08 02:47:19;;;;;;;5.43;1.00;;;11.70;99.90;;;;;;5032824;28;20194;-85
2023/09/08 02:49:47;;;;;;;3.72;0.75;;;11.70;99.90;;;;;;5037028;28;20561;-85
2023/09/08 02:52:15;;;;;;;5.15;0.77;;;11.60;99.90;;;;;;5037802;28;20193;-83
2023/09/08 02:54:42;;;;;;;3.33;0.70;;;11.60;99.90;;;;;;5033987;28;20245;-84
2023/09/08 02:57:10;;;;;;;3.60;0.65;;;11.50;99.90;;;;;;5037897;28;20678;-84
2023/09/08 02:59:38;;;;;;;2.63;0.60;;;11.60;99.90;;;;;;5037478;28;20198;-84
2023/09/08 03:02:07;;;;;;;1.20;0.70;;;11.50;99.90;;;;;;5036159;28;20243;-84
2023/09/08 03:04:35;;;;;;;1.58;0.50;;;11.60;99.90;;;;;;5020977;28;20193;-84
2023/09/08 03:07:03;;;;;;;2.30;0.70;;;11.50;99.90;;;;;;5033835;28;20259;-84
2023/09/08 03:09:33;;;;;;;5.68;0.80;;;11.50;99.90;;;;;;5043371;28;20193;-84
2023/09/08 03:12:01;;;;;;;3.17;0.60;;;11.40;99.90;;;;;;5019151;28;20190;-83
2023/09/08 03:14:29;;;;;;;3.72;0.60;;;11.40;99.90;;;;;;5040702;28;20562;-84
2023/09/08 03:16:57;;;;;;;1.30;0.60;;;11.40;99.90;;;;;;5009731;28;20607;-85
2023/09/08 03:19:25;;;;;;;2.28;0.40;;;11.50;99.90;;;;;;5039325;28;20242;-84
2023/09/08 03:21:53;;;;;;;4.47;0.82;;;11.50;99.90;;;;;;5031973;28;20765;-84
2023/09/08 03:24:20;;;;;;;1.52;0.57;;;11.50;99.90;;;;;;5038214;28;20193;-83
2023/09/08 03:26:48;;;;;;;2.00;0.45;;;11.50;99.90;;;;;;5036528;28;20209;-84
2023/09/08 03:29:16;;;;;;;1.08;0.57;;;11.50;99.90;;;;;;5037094;28;20693;-84
2023/09/08 03:31:44;;;;;;;0.85;0.57;;;11.50;99.90;;;;;;5032490;28;20229;-85
2023/09/08 03:34:13;;;;;;;0.80;0.60;;;11.50;99.90;;;;;;5034402;28;20201;-84
2023/09/08 03:36:41;;;;;;;3.45;0.50;;;11.40;99.90;;;;;;5034539;28;20186;-84
2023/09/08 03:39:09;;;;;;;2.55;0.80;;;11.40;99.90;;;;;;5028761;28;20186;-84
2023/09/08 03:41:38;;;;;;;0.95;0.60;;;11.40;99.90;;;;;;5034373;28;20198;-86
2023/09/08 03:44:06;;;;;;;0.77;0.60;;;11.40;99.90;;;;;;5035531;28;20701;-85
2023/09/08 03:46:34;;;;;;;1.85;0.60;;;11.30;99.90;;;;;;5019263;28;20361;-85
2023/09/08 03:49:01;;;;;;;2.20;0.60;;;11.30;99.90;;;;;;5015153;28;20205;-85
2023/09/08 03:51:29;;;;;;;2.10;0.50;;;11.40;99.90;;;;;;5037609;28;20213;-86
2023/09/08 03:53:57;;;;;;;1.13;0.50;;;11.20;99.90;;;;;;5032081;28;20566;-85
2023/09/08 03:56:25;;;;;;;1.08;0.50;;;11.20;99.90;;;;;;5035021;28;20281;-86
2023/09/08 03:58:53;;;;;;;2.30;0.70;;;11.30;99.90;;;;;;5037961;28;20189;-83
2023/09/08 04:01:20;;;;;;;2.83;0.70;;;11.30;99.90;;;;;;5034722;28;20667;-82
2023/09/08 04:03:48;;;;;;;6.13;0.70;;;11.30;99.90;;;;;;5039827;28;20654;-83
2023/09/08 04:06:16;;;;;;;3.20;0.60;;;11.30;99.90;;;;;;5036722;28;20193;-86
2023/09/08 04:08:44;;;;;;;0.60;0.60;;;11.40;99.90;;;;;;5030233;28;20202;-85
2023/09/08 04:11:12;;;;;;;0.75;0.43;;;11.30;99.90;;;;;;5030839;28;20278;-83
2023/09/08 04:13:39;;;;;;;0.88;0.55;;;11.30;99.90;;;;;;5037521;28;20190;-85
2023/09/08 04:16:07;;;;;;;0.65;0.55;;;11.30;99.90;;;;;;5034131;28;20186;-84
2023/09/08 04:18:35;;;;;;;2.05;0.50;;;11.30;99.90;;;;;;5030184;28;20234;-84
2023/09/08 04:21:03;;;;;;;1.40;0.60;;;11.20;99.90;;;;;;5032065;28;20271;-85
2023/09/08 04:23:30;;;;;;;1.00;0.70;;;11.30;99.90;;;;;;5018446;28;20193;-84
2023/09/08 04:25:59;;;;;;;2.35;0.65;;;11.40;99.90;;;;;;5037528;28;20187;-85
2023/09/08 04:28:27;;;;;;;1.38;0.55;;;11.40;99.90;;;;;;5018243;28;20217;-85
2023/09/08 04:30:54;;;;;;;5.07;0.77;;;11.30;99.90;;;;;;5036419;28;20579;-86
2023/09/08 04:33:24;;;;;;;2.10;0.70;;;11.40;99.90;;;;;;5035558;28;20194;-85
2023/09/08 04:35:52;;;;;;;4.30;1.00;;;11.30;99.90;;;;;;5028691;28;20716;-85
2023/09/08 04:38:19;;;;;;;1.58;0.80;;;11.30;99.90;;;;;;5034986;28;20273;-84
2023/09/08 04:40:47;;;;;;;1.58;0.70;;;11.20;99.90;;;;;;5012329;28;20288;-85
2023/09/08 04:43:15;;;;;;;5.55;0.75;;;11.30;99.90;;;;;;5026048;28;20195;-85
2023/09/08 04:45:43;;;;;;;4.25;0.98;;;11.30;99.90;;;;;;5019164;28;20693;-89
2023/09/08 04:48:11;;;;;;;1.08;0.70;;;11.30;99.90;;;;;;5020591;28;20201;-88
2023/09/08 04:50:39;;;;;;;1.08;0.80;;;11.30;99.90;;;;;;5026911;28;20209;-88
2023/09/08 04:53:08;;;;;;;3.03;0.90;;;11.40;99.90;;;;;;5041128;28;20628;-89
2023/09/08 04:55:36;;;;;;;3.05;0.85;;;11.30;99.90;;;;;;5012640;28;20187;-88
2023/09/08 04:58:04;;;;;;;2.22;0.90;;;11.40;99.90;;;;;;5012328;28;20283;-88
2023/09/08 05:00:33;;;;;;;6.00;1.20;;;11.40;99.90;;;;;;5026972;28;20206;-88
2023/09/08 05:03:02;;;;;;;4.20;1.02;;;11.40;99.90;;;;;;5043013;28;20943;-88
2023/09/08 05:05:29;;;;;;;4.20;1.20;;;11.50;99.90;;;;;;5048787;28;20226;-89
2023/09/08 05:07:57;;;;;;;4.25;1.33;;;11.50;99.90;;;;;;5024945;28;20218;-88
2023/09/08 05:10:25;;;;;;;6.90;1.13;;;11.50;99.90;;;;;;4996240;28;20218;-88
2023/09/08 05:12:53;;;;;;;2.85;1.13;;;11.50;99.90;;;;;;5025966;28;20201;-89
2023/09/08 05:15:21;;;;;;;6.70;2.00;;;11.50;99.90;;;;;;5020114;28;20544;-87
2023/09/08 05:17:52;;;;;;;1.83;0.93;;;11.60;99.90;;;;;;5025683;28;20190;-87
2023/09/08 05:20:21;;;;;;;3.50;1.10;;;11.60;99.90;;;;;;5045137;28;20193;-88
2023/09/08 05:22:49;;;;;;;3.03;1.33;;;11.70;99.90;;;;;;5029159;28;20214;-87
2023/09/08 05:25:17;;;;;;;4.63;1.40;;;11.70;99.90;;;;;;5033180;28;20190;-87
2023/09/08 05:27:45;;;;;;;5.68;1.40;;;11.80;99.90;;;;;;5016723;28;20206;-88
2023/09/08 05:30:14;;;;;;;4.00;1.15;;;11.80;99.90;;;;;;5017757;28;20216;-88
2023/09/08 05:32:41;;;;;;;2.78;1.05;;;11.90;99.90;;;;;;5035617;28;20250;-88
2023/09/08 05:35:09;;;;;;;10.43;1.60;;;11.90;99.90;;;;;;5019237;28;20201;-87
2023/09/08 05:37:37;;;;;;;6.47;1.40;;;12.00;99.90;;;;;;5028614;28;20216;-89
2023/09/08 05:40:06;;;;;;;1.83;1.23;;;12.10;99.90;;;;;;5049168;28;20245;-88
2023/09/08 05:42:34;;;;;;;4.63;1.42;;;12.20;99.90;;;;;;5031473;28;20201;-88
2023/09/08 05:45:02;;;;;;;2.55;1.00;;;12.20;99.90;;;;;;5024796;28;20229;-89
2023/09/08 05:47:31;;;;;;;4.18;1.23;;;12.20;99.90;;;;;;5010471;28;20192;-89
2023/09/08 05:49:59;;;;;;;5.25;1.23;;;12.20;99.90;;;;;;5009022;28;20205;-87
2023/09/08 05:52:28;;;;;;;3.75;1.08;;;12.20;99.90;;;;;;5022231;28;20197;-89
2023/09/08 05:54:56;;;;;;;5.40;1.08;;;12.30;99.90;;;;;;5030221;28;20281;-89
2023/09/08 05:57:25;;;;;;;3.85;1.00;;;12.40;99.90;;;;;;5011770;28;20208;-88
2023/09/08 05:59:53;;;;;;;5.05;1.15;;;12.50;99.90;;;;;;5032804;28;20662;-88
2023/09/08 06:02:22;;;;;;;2.88;1.20;;;12.60;99.90;;;;;;4999403;28;20206;-88
2023/09/08 06:04:50;;;;;;;6.68;1.10;;;12.70;99.90;;;;;;4997450;28;20209;-85
2023/09/08 06:07:18;;;;;;;8.13;1.30;;;12.70;99.90;;;;;;5038419;28;20567;-85
2023/09/08 06:09:46;;;;;;;4.38;1.00;;;12.80;99.90;;;;;;5039643;28;20193;-85
2023/09/08 06:12:13;;;;;;;5.18;1.20;;;13.00;99.90;;;;;;5032178;28;20706;-85
2023/09/08 06:14:41;;;;;;;4.47;0.85;;;13.00;99.90;;;;;;5045486;28;20284;-85
2023/09/08 06:17:11;;;;;;;4.63;1.00;;;13.10;99.90;;;;;;5035000;28;20205;-85
2023/09/08 06:19:39;;;;;;;5.57;1.15;;;13.10;99.90;;;;;;5039833;28;20189;-85
2023/09/08 06:22:07;;;;;;;5.47;1.20;;;13.20;99.90;;;;;;5030907;28;20262;-85
2023/09/08 06:24:35;;;;;;;6.15;1.30;;;13.20;99.90;;;;;;5039857;28;20226;-85
2023/09/08 06:27:02;;;;;;;4.57;1.08;;;13.30;99.90;;;;;;5035543;28;20246;-84
2023/09/08 06:29:30;;;;;;;6.95;1.10;;;13.40;99.90;;;;;;5019789;28;20202;-84
2023/09/08 06:31:58;;;;;;;4.15;1.00;;;13.50;99.90;;;;;;5038340;28;20882;-85
2023/09/08 06:34:26;;;;;;;7.22;1.30;;;13.60;99.90;;;;;;5022304;28;20207;-84
2023/09/08 06:36:54;;;;;;;4.70;1.20;;;13.60;99.90;;;;;;5034678;28;20200;-84
2023/09/08 06:39:22;;;;;;;3.78;1.17;;;13.60;99.90;;;;;;5031996;28;20198;-84
2023/09/08 06:41:51;;;;;;;3.08;0.80;;;13.70;99.90;;;;;;5038321;28;20201;-85
2023/09/08 06:44:20;;;;;;;4.68;1.10;;;13.80;99.90;;;;;;5029749;28;20209;-88
2023/09/08 06:46:48;;;;;;;2.33;1.00;;;13.90;99.90;;;;;;5041896;28;20234;-89
2023/09/08 06:49:16;;;;;;;2.35;1.00;;;13.90;99.90;;;;;;5026887;28;20591;-89
2023/09/08 06:51:47;;;;;;;3.95;1.00;;;14.00;99.90;;;;;;5027953;28;20663;-89
2023/09/08 06:54:15;;;;;;;4.30;1.05;;;14.00;99.90;;;;;;5019796;28;20230;-89
2023/09/08 06:56:44;;;;;;;6.53;1.20;;;14.10;99.90;;;;;;5028017;28;20194;-89
2023/09/08 06:59:12;;;;;;;3.58;1.00;;;14.10;99.90;;;;;;5028111;28;20210;-90
2023/09/08 07:01:39;;;;;;;6.07;1.20;;;14.30;99.90;;;;;;5011782;28;20658;-89
2023/09/08 07:04:08;;;;;;;2.53;0.90;;;14.30;99.90;;;;;;5012049;28;20194;-89
2023/09/08 07:06:38;;;;;;;6.47;1.10;;;14.30;99.90;;;;;;5029137;28;20182;-89
2023/09/08 07:09:06;;;;;;;3.28;0.98;;;14.50;99.90;;;;;;5027956;28;20182;-89
2023/09/08 07:11:33;;;;;;;7.93;1.13;;;14.50;99.90;;;;;;5027958;28;20206;-89
2023/09/08 07:14:02;;;;;;;5.53;1.00;;;14.60;99.90;;;;;;5028026;28;20582;-89
2023/09/08 07:16:30;;;;;;;9.88;1.10;;;14.70;99.90;;;;;;5010670;28;20221;-91
2023/09/08 07:19:00;;;;;;;4.22;1.13;;;14.70;99.90;;;;;;5029376;28;20217;-90
2023/09/08 07:21:29;;;;;;;7.05;1.10;;;14.80;99.90;;;;;;5027590;28;20190;-90
2023/09/08 07:23:58;;;;;;;6.80;1.23;;;14.80;99.90;;;;;;5012206;28;20561;-89
2023/09/08 07:26:27;;;;;;;1.77;1.00;;;14.90;99.90;;;;;;5039455;28;20656;-90
2023/09/08 07:28:54;;;;;;;5.70;1.23;;;15.00;99.90;;;;;;5015219;28;20698;-89
2023/09/08 07:31:22;;;;;;;4.20;1.05;;;15.00;99.90;;;;;;5024467;28;20225;-90
2023/09/08 07:33:51;;;;;;;2.95;0.80;;;15.10;99.90;;;;;;5008307;28;20194;-90
2023/09/08 07:36:19;;;;;;;6.05;1.02;;;15.20;99.90;;;;;;5008500;28;20236;-90
2023/09/08 07:38:47;;;;;;;1.80;0.82;;;15.20;99.90;;;;;;5008442;28;20191;-89
2023/09/08 07:41:15;;;;;;;2.47;0.90;;;15.30;99.90;;;;;;5019323;28;20227;-86
2023/09/08 07:43:45;;;;;;;5.47;0.85;;;15.20;99.90;;;;;;5039509;28;20231;-85
2023/09/08 07:46:17;;;;;;;7.88;0.93;;;15.40;99.90;;;;;;5031628;28;20606;-86
2023/09/08 07:48:45;;;;;;;4.07;1.00;;;15.50;99.90;;;;;;5035924;28;20197;-86
2023/09/08 07:51:12;;;;;;;5.78;1.08;;;15.70;99.90;;;;;;5037806;28;20201;-86
2023/09/08 07:53:40;;;;;;;3.58;0.82;;;15.70;99.90;;;;;;5034215;28;20221;-86
2023/09/08 07:56:08;;;;;;;1.98;0.80;;;15.80;99.90;;;;;;5035179;28;20201;-86
2023/09/08 07:58:36;;;;;;;5.47;1.13;;;15.80;99.90;;;;;;5036132;28;20218;-85
2023/09/08 08:01:04;;;;;;;1.67;0.80;;;15.80;99.90;;;;;;5020202;28;20227;-86
2023/09/08 08:03:34;;;;;;;5.55;0.95;;;15.80;99.90;;;;;;5036338;28;20190;-86
2023/09/08 08:06:02;;;;;;;2.25;1.13;;;15.80;99.90;;;;;;5004659;28;20246;-86
2023/09/08 08:08:30;;;;;;;4.47;0.88;;;15.90;99.90;;;;;;5032099;28;20231;-86
2023/09/08 08:10:59;;;;;;;4.35;0.90;;;16.10;99.90;;;;;;5036380;28;20212;-86
2023/09/08 08:13:27;;;;;;;6.20;0.95;;;16.10;99.90;;;;;;5019144;28;20190;-86
2023/09/08 08:15:54;;;;;;;2.80;1.10;;;16.10;99.90;;;;;;5034349;28;20181;-86
2023/09/08 08:18:22;;;;;;;3.55;0.80;;;16.20;99.90;;;;;;5036341;28;20542;-85
2023/09/08 08:20:50;;;;;;;2.00;0.73;;;16.20;99.90;;;;;;5035540;28;20228;-86
2023/09/08 08:23:18;;;;;;;6.35;0.90;;;16.30;99.90;;;;;;5038783;28;20675;-86
2023/09/08 08:25:45;;;;;;;5.00;1.08;;;16.30;99.90;;;;;;5035421;28;20185;-86
2023/09/08 08:28:13;;;;;;;3.88;0.90;;;16.40;99.90;;;;;;5033591;28;20188;-86
2023/09/08 08:30:42;;;;;;;5.50;0.90;;;16.30;99.90;;;;;;5017448;28;20276;-86
2023/09/08 08:33:10;;;;;;;8.68;1.08;;;16.40;99.90;;;;;;5017058;28;20189;-86
2023/09/08 08:35:38;;;;;;;3.70;0.77;;;16.50;99.90;;;;;;5036855;28;20193;-86
2023/09/08 08:38:06;;;;;;;4.75;0.80;;;16.60;99.90;;;;;;5014853;28;20191;-86
2023/09/08 08:40:39;;;;;;;7.65;1.13;;;16.50;99.90;;;;;;5020124;28;20249;-86
2023/09/08 08:43:07;;;;;;;1.50;0.75;;;16.50;99.90;;;;;;5033812;28;20276;-86
2023/09/08 08:45:36;;;;;;;4.10;1.00;;;16.70;99.90;;;;;;5027328;28;20265;-85
2023/09/08 08:48:11;;;;;;;3.90;0.93;;;16.70;99.90;;;;;;5024369;28;20251;-85
2023/09/08 08:50:41;;;;;;;3.08;0.95;;;16.90;99.90;;;;;;5033431;28;20193;-86
2023/09/08 08:53:10;;;;;;;2.03;0.73;;;16.90;99.90;;;;;;5024282;28;20284;-86
2023/09/08 08:55:38;;;;;;;6.38;0.80;;;17.00;99.90;;;;;;5023050;28;20309;-87
2023/09/08 08:58:06;;;;;;;1.95;0.80;;;16.90;99.90;;;;;;5024227;28;20194;-87
2023/09/08 09:00:37;;;;;;;3.22;0.80;;;16.90;99.90;;;;;;5031093;28;20242;-86
2023/09/08 09:03:06;;;;;;;2.38;1.10;;;16.90;99.90;;;;;;5034922;28;20703;-86
2023/09/08 09:05:42;;;;;;;4.30;1.00;;;17.00;99.90;;;;;;5033728;28;20278;-86
2023/09/08 09:08:16;;;;;;;2.90;0.80;;;17.10;99.90;;;;;;5033713;28;20189;-85
2023/09/08 09:10:44;;;;;;;1.38;0.70;;;17.10;99.90;;;;;;5025245;28;20599;-86
2023/09/08 09:13:11;;;;;;;2.17;0.60;;;17.20;99.90;;;;;;5030419;28;20201;-87
2023/09/08 09:15:40;;;;;;;1.83;0.90;;;17.00;99.90;;;;;;5028387;28;20219;-85
2023/09/08 09:18:08;;;;;;;2.05;0.60;;;17.20;99.90;;;;;;5027359;28;21041;-87
2023/09/08 09:20:36;;;;;;;6.28;1.00;;;17.10;99.90;;;;;;5028522;28;20194;-86
2023/09/08 09:23:04;;;;;;;2.83;0.80;;;17.10;99.90;;;;;;5032941;28;20205;-87
2023/09/08 09:25:32;;;;;;;6.85;0.77;;;17.20;99.90;;;;;;5029829;28;20239;-87
2023/09/08 09:28:02;;;;;;;1.40;0.60;;;17.10;99.90;;;;;;5038054;28;20258;-86
2023/09/08 09:30:49;;;;;;;2.50;0.50;;;17.40;99.90;;;;;;5032234;28;20695;-86
2023/09/08 09:33:17;;;;;;;1.52;0.95;;;17.50;99.90;;;;;;5033661;28;20201;-86
2023/09/08 09:35:48;;;;;;;1.48;0.70;;;17.40;99.90;;;;;;5039895;28;20186;-87
2023/09/08 09:38:18;;;;;;;1.65;0.60;;;17.50;99.90;;;;;;5027907;28;20268;-87
2023/09/08 09:40:46;;;;;;;1.02;0.63;;;17.60;99.90;;;;;;5033377;28;20190;-87
2023/09/08 09:43:16;;;;;;;2.55;0.75;;;17.60;99.90;;;;;;5038722;28;20243;-88
2023/09/08 09:45:43;;;;;;;1.27;0.70;;;17.70;99.90;;;;;;5040953;28;20283;-89
2023/09/08 09:48:12;;;;;;;5.13;0.93;;;17.70;99.90;;;;;;5029353;28;20278;-87
2023/09/08 09:50:43;;;;;;;1.25;0.60;;;17.80;99.90;;;;;;5039180;28;20212;-89
2023/09/08 09:53:15;;;;;;;2.47;0.65;;;17.90;99.90;;;;;;5036056;28;20209;-87
2023/09/08 09:55:45;;;;;;;1.00;0.60;;;17.90;99.90;;;;;;5036037;28;20558;-87
2023/09/08 09:58:14;;;;;;;1.15;0.50;;;18.00;99.90;;;;;;5019970;28;20204;-87
2023/09/08 10:00:47;;;;;;;1.55;0.70;;;17.90;99.90;;;;;;5016756;28;20195;-87
2023/09/08 10:03:16;;;;;;;3.78;0.70;;;17.90;99.90;;;;;;5036325;28;20289;-87
2023/09/08 10:05:47;;;;;;;1.90;0.70;;;18.00;99.90;;;;;;5039215;28;20242;-86
2023/09/08 10:08:14;;;;;;;5.07;0.88;;;18.10;99.90;;;;;;5039964;28;20200;-87
2023/09/08 10:10:45;;;;;;;4.72;0.70;;;18.30;99.90;;;;;;5035864;28;20556;-86
2023/09/08 10:13:18;;;;;;;0.90;0.47;;;18.30;99.90;;;;;;5031009;27;20234;-85
2023/09/08 10:15:47;;;;;;;1.95;0.70;;;18.20;99.90;;;;;;5042891;28;20193;-85
2023/09/08 10:18:19;;;;;;;2.45;1.00;;;18.20;99.90;;;;;;5021538;28;20185;-85
2023/09/08 10:20:49;;;;;;;1.55;0.60;;;18.40;99.90;;;;;;5030591;28;20190;-84
2023/09/08 10:23:31;;;;;;;1.25;0.50;;;18.30;99.90;;;;;;5029345;28;20198;-84
2023/09/08 10:26:05;;;;;;;1.15;0.50;;;18.30;99.90;;;;;;5016913;28;20204;-83
2023/09/08 10:28:33;;;;;;;3.60;0.80;;;18.40;99.90;;;;;;5033343;28;20194;-85
2023/09/08 10:31:03;;;;;;;1.58;0.93;;;18.50;99.90;;;;;;5033364;28;20662;-84
2023/09/08 10:33:32;;;;;;;1.98;0.85;;;18.60;99.90;;;;;;5033232;28;20198;-84
2023/09/08 10:36:03;;;;;;;4.72;0.98;;;18.50;99.90;;;;;;5040848;28;20182;-84
2023/09/08 10:38:34;;;;;;;1.20;0.80;;;18.60;99.90;;;;;;5034580;28;20193;-86
2023/09/08 10:41:26;;;;;;;4.05;0.70;;;18.70;99.90;;;;;;5039972;28;20196;-83
2023/09/08 10:44:07;;;;;;;3.58;0.70;;;18.80;99.90;;;;;;5039619;28;20189;-84
2023/09/08 10:46:37;;;;;;;4.45;0.73;;;18.80;99.90;;;;;;5030948;28;20217;-83
2023/09/08 10:49:10;;;;;;;4.25;0.65;;;18.90;99.90;;;;;;5034685;28;20269;-83
2023/09/08 10:51:39;;;;;;;1.13;0.55;;;19.00;99.90;;;;;;5037605;28;20264;-84
2023/09/08 10:54:11;;;;;;;1.05;0.60;;;19.10;99.90;;;;;;5038970;28;20258;-83
2023/09/08 10:56:55;;;;;;;3.70;0.77;;;19.10;99.90;;;;;;5037001;28;20198;-83
2023/09/08 10:59:35;;;;;;;2.72;0.95;;;19.20;99.90;;;;;;5017752;28;20189;-83
2023/09/08 11:02:05;;;;;;;3.13;0.75;;;19.40;99.90;;;;;;5035444;28;20230;-83
2023/09/08 11:04:37;;;;;;;1.48;0.70;;;19.20;99.90;;;;;;5015297;28;20286;-84
2023/09/08 11:07:04;;;;;;;1.98;0.80;;;19.30;99.90;;;;;;5037356;28;20198;-83
2023/09/08 11:09:36;;;;;;;4.38;0.73;;;19.50;99.90;;;;;;5036632;28;20193;-83
2023/09/08 11:12:08;;;;;;;2.45;0.82;;;19.50;99.90;;;;;;5032603;28;20688;-84
2023/09/08 11:14:36;;;;;;;1.50;0.63;;;19.70;99.90;;;;;;5033747;28;20182;-82
2023/09/08 11:17:03;;;;;;;5.88;1.38;;;19.80;99.90;;;;;;5035706;28;20186;-84
2023/09/08 11:19:55;;;;;;;1.15;0.60;;;19.80;99.90;;;;;;5028569;28;20684;-83
2023/09/08 11:22:26;;;;;;;2.60;0.63;;;19.90;99.90;;;;;;5037412;27;20234;-83
2023/09/08 11:24:56;;;;;;;4.68;0.90;;;19.90;99.90;;;;;;5034950;28;20625;-83
2023/09/08 11:27:24;;;;;;;2.30;0.80;;;20.00;99.90;;;;;;5039819;28;20193;-84
2023/09/08 11:29:52;;;;;;;2.42;0.90;;;20.10;99.90;;;;;;5036402;28;20258;-83
2023/09/08 11:32:21;;;;;;;2.55;0.90;;;20.10;99.90;;;;;;5028446;28;20229;-83
2023/09/08 11:34:49;;;;;;;1.75;0.60;;;20.10;99.90;;;;;;5031114;28;20562;-84
2023/09/08 11:37:22;;;;;;;3.80;0.85;;;20.30;99.90;;;;;;5031322;28;20209;-83
2023/09/08 11:39:55;;;;;;;4.13;0.95;;;20.40;99.90;;;;;;5029311;28;20306;-83
2023/09/08 11:42:27;;;;;;;1.90;0.68;;;20.50;99.90;;;;;;5023133;28;20186;-85
2023/09/08 11:44:57;;;;;;;4.15;0.60;;;20.70;99.90;;;;;;5035344;28;20722;-83
2023/09/08 11:47:26;;;;;;;2.88;0.90;;;20.50;99.90;;;;;;5034802;28;20198;-84
2023/09/08 11:49:54;;;;;;;1.33;0.68;;;20.60;99.90;;;;;;5037310;28;20272;-85
2023/09/08 11:52:24;;;;;;;1.90;0.68;;;20.60;99.90;;;;;;5033054;28;20209;-84
2023/09/08 11:54:52;;;;;;;2.28;0.77;;;20.70;99.90;;;;;;5030319;28;20193;-85
2023/09/08 11:57:34;;;;;;;3.10;0.73;;;21.00;99.90;;;;;;5025234;28;20192;-83
2023/09/08 12:00:05;;;;;;;1.48;0.60;;;21.00;99.90;;;;;;5034733;28;20213;-84
2023/09/08 12:02:39;;;;;;;4.55;1.10;;;20.60;99.90;;;;;;5036070;28;20231;-84
2023/09/08 12:05:13;;;;;;;6.28;1.00;;;20.60;99.90;;;;;;5028255;28;20195;-84
2023/09/08 12:07:41;;;;;;;3.22;0.75;;;20.60;99.90;;;;;;5036223;28;20674;-84
2023/09/08 12:10:10;;;;;;;2.55;0.80;;;20.60;99.90;;;;;;5037405;28;20217;-85
2023/09/08 12:12:49;;;;;;;1.15;0.68;;;20.70;99.90;;;;;;5037784;28;20237;-85
2023/09/08 12:15:36;;;;;;;3.25;0.90;;;20.80;99.90;;;;;;5027254;28;20667;-84
2023/09/08 12:18:06;;;;;;;5.07;1.10;;;21.20;99.90;;;;;;5035853;28;20182;-85
2023/09/08 12:20:36;;;;;;;3.63;0.90;;;21.20;99.90;;;;;;5037029;28;20178;-84
2023/09/08 12:23:18;;;;;;;4.47;0.75;;;21.30;99.90;;;;;;5035746;28;20189;-84
2023/09/08 12:25:53;;;;;;;6.95;1.20;;;21.10;99.90;;;;;;5029528;28;20244;-83
2023/09/08 12:28:22;;;;;;;5.10;0.93;;;21.10;99.90;;;;;;5033949;28;20283;-84
2023/09/08 12:30:50;;;;;;;1.88;0.90;;;21.30;99.90;;;;;;5033845;28;20674;-85
2023/09/08 12:33:19;;;;;;;4.10;0.90;;;21.20;99.90;;;;;;5044788;28;20913;-85
2023/09/08 12:35:50;;;;;;;5.00;0.90;;;21.50;99.90;;;;;;5017337;28;20761;-84
2023/09/08 12:38:19;;;;;;;3.72;1.00;;;21.40;99.90;;;;;;5031485;28;20197;-84
2023/09/08 12:40:49;;;;;;;5.07;0.75;;;21.20;99.90;;;;;;5034004;28;20197;-84
2023/09/08 12:43:17;;;;;;;2.70;0.95;;;21.00;99.90;;;;;;5034151;28;20197;-85
2023/09/08 12:45:56;;;;;;;4.43;0.80;;;20.80;99.90;;;;;;5033514;28;20771;-86
2023/09/08 12:48:24;;;;;;;2.40;0.90;;;20.70;99.90;;;;;;5024889;28;20272;-84
2023/09/08 12:50:52;;;;;;;3.10;0.90;;;20.80;99.90;;;;;;5037156;28;20686;-83
2023/09/08 12:53:21;;;;;;;2.03;0.70;;;21.00;99.90;;;;;;5037053;28;20202;-84
2023/09/08 12:55:49;;;;;;;2.65;1.20;;;21.20;99.90;;;;;;5031559;28;20239;-84
2023/09/08 12:58:17;;;;;;;2.03;0.80;;;21.40;99.90;;;;;;5036101;28;20250;-84